createdAt,value
2018-11-21T00:00:08.492Z,4.02
2018-11-21T00:01:08.474Z,4.08
2018-11-21T00:02:08.460Z,4.05
2018-11-21T00:03:08.446Z,3.96
2018-11-21T00:04:08.432Z,3.96
2018-11-21T00:05:08.419Z,4.04
2018-11-21T00:06:08.414Z,4.04
2018-11-21T00:07:08.392Z,3.98
2018-11-21T00:08:08.376Z,3.98
2018-11-21T00:09:08.362Z,4.01
2018-11-21T00:10:08.350Z,3.96
2018-11-21T00:11:08.333Z,4.05
2018-11-21T00:12:08.319Z,3.98
2018-11-21T00:13:08.305Z,3.95
2018-11-21T00:14:08.295Z,3.98
2018-11-21T00:15:08.276Z,4.05
2018-11-21T00:16:08.263Z,4.02
2018-11-21T00:17:08.254Z,4.04
2018-11-21T00:18:08.234Z,4.06
2018-11-21T00:19:08.220Z,3.96
2018-11-21T00:20:08.251Z,4.08
2018-11-21T00:21:08.195Z,4.12
2018-11-21T00:22:08.178Z,4.02
2018-11-21T00:23:08.164Z,4.05
2018-11-21T00:24:08.150Z,4.04
2018-11-21T00:25:08.138Z,4.06
2018-11-21T00:26:08.372Z,4.06
2018-11-21T00:27:08.107Z,3.99
2018-11-21T00:28:08.094Z,4.02
2018-11-21T00:29:08.080Z,4.01
2018-11-21T00:30:08.065Z,4.05
2018-11-21T00:31:08.053Z,4.10
2018-11-21T00:32:08.037Z,4.02
2018-11-21T00:33:08.024Z,4.05
2018-11-21T00:34:08.009Z,4.05
2018-11-21T00:35:07.998Z,4.01
2018-11-21T00:36:07.979Z,4.05
2018-11-21T00:37:07.966Z,4.04
2018-11-21T00:38:07.951Z,4.04
2018-11-21T00:39:07.938Z,4.05
2018-11-21T00:40:07.924Z,3.99
2018-11-21T00:41:07.910Z,3.96
2018-11-21T00:42:07.896Z,3.98
2018-11-21T00:43:07.907Z,3.96
2018-11-21T00:44:07.869Z,4.01
2018-11-21T00:45:07.852Z,4.04
2018-11-21T00:46:07.841Z,4.02
2018-11-21T00:47:07.824Z,3.96
2018-11-21T00:48:07.810Z,3.98
2018-11-21T00:49:07.795Z,3.95
2018-11-21T00:50:07.805Z,3.98
2018-11-21T00:51:07.767Z,4.08
2018-11-21T00:52:07.753Z,4.01
2018-11-21T00:53:07.738Z,3.99
2018-11-21T00:54:07.724Z,3.95
2018-11-21T00:55:07.709Z,4.02
2018-11-21T00:56:07.694Z,4.01
2018-11-21T00:57:07.682Z,4.04
2018-11-21T00:58:07.667Z,3.98
2018-11-21T00:59:07.653Z,3.96
2018-11-21T01:00:07.642Z,3.98
2018-11-21T01:01:07.632Z,3.98
2018-11-21T01:02:07.860Z,3.92
2018-11-21T01:03:07.801Z,3.99
2018-11-21T01:04:07.582Z,4.01
2018-11-21T01:05:07.569Z,3.94
2018-11-21T01:06:07.554Z,4.02
2018-11-21T01:07:07.540Z,3.94
2018-11-21T01:08:07.526Z,3.96
2018-11-21T01:09:07.514Z,3.87
2018-11-21T01:10:07.498Z,3.87
2018-11-21T01:11:07.483Z,3.95
2018-11-21T01:12:07.469Z,3.81
2018-11-21T01:13:07.456Z,3.84
2018-11-21T01:14:07.441Z,3.87
2018-11-21T01:15:07.426Z,3.81
2018-11-21T01:16:07.413Z,3.83
2018-11-21T01:17:07.401Z,3.96
2018-11-21T01:18:07.384Z,3.95
2018-11-21T01:19:07.369Z,3.84
2018-11-21T01:20:07.356Z,3.84
2018-11-21T01:21:07.341Z,3.92
2018-11-21T01:22:07.326Z,3.88
2018-11-21T01:23:07.315Z,3.87
2018-11-21T01:24:07.298Z,3.84
2018-11-21T01:25:07.284Z,3.84
2018-11-21T01:26:07.268Z,3.88
2018-11-21T01:27:07.255Z,3.84
2018-11-21T01:28:07.239Z,3.84
2018-11-21T01:29:07.227Z,3.77
2018-11-21T01:30:07.210Z,3.77
2018-11-21T01:31:07.201Z,3.76
2018-11-21T01:32:07.182Z,3.73
2018-11-21T01:33:09.806Z,3.74
2018-11-21T01:34:07.153Z,3.73
2018-11-21T01:35:07.139Z,3.70
2018-11-21T01:36:07.124Z,3.73
2018-11-21T01:37:07.365Z,3.80
2018-11-21T01:38:07.094Z,3.73
2018-11-21T01:39:07.084Z,3.78
2018-11-21T01:40:07.069Z,3.77
2018-11-21T01:41:07.054Z,3.77
2018-11-21T01:42:07.050Z,3.76
2018-11-21T01:43:07.027Z,3.74
2018-11-21T01:44:07.009Z,3.73
2018-11-21T01:45:06.995Z,3.69
2018-11-21T01:46:06.979Z,3.70
2018-11-21T01:47:06.967Z,3.76
2018-11-21T01:48:08.704Z,3.65
2018-11-21T01:49:06.937Z,3.74
2018-11-21T01:50:06.934Z,3.77
2018-11-21T01:51:06.907Z,3.65
2018-11-21T01:52:06.893Z,3.73
2018-11-21T01:53:06.881Z,3.73
2018-11-21T01:54:06.864Z,3.76
2018-11-21T01:55:06.850Z,3.62
2018-11-21T01:56:06.835Z,3.62
2018-11-21T01:57:06.824Z,3.65
2018-11-21T01:58:06.806Z,3.66
2018-11-21T01:59:06.792Z,3.65
2018-11-21T02:00:06.778Z,3.66
2018-11-21T02:01:06.966Z,3.58
2018-11-21T02:02:06.749Z,3.56
2018-11-21T02:03:06.735Z,3.56
2018-11-21T02:04:06.720Z,3.66
2018-11-21T02:05:06.706Z,3.53
2018-11-21T02:06:06.692Z,3.55
2018-11-21T02:07:06.677Z,3.55
2018-11-21T02:08:06.668Z,3.58
2018-11-21T02:09:06.649Z,3.53
2018-11-21T02:10:06.633Z,3.56
2018-11-21T02:11:06.619Z,3.66
2018-11-21T02:12:06.605Z,3.68
2018-11-21T02:13:06.591Z,3.55
2018-11-21T02:14:06.826Z,3.70
2018-11-21T02:15:06.562Z,3.66
2018-11-21T02:16:06.547Z,3.63
2018-11-21T02:17:06.536Z,3.58
2018-11-21T02:18:06.519Z,3.65
2018-11-21T02:19:06.754Z,3.65
2018-11-21T02:20:06.490Z,3.63
2018-11-21T02:21:06.476Z,3.68
2018-11-21T02:22:06.461Z,3.63
2018-11-21T02:23:06.446Z,3.70
2018-11-21T02:24:06.434Z,3.73
2018-11-21T02:25:06.418Z,3.59
2018-11-21T02:26:06.405Z,3.63
2018-11-21T02:27:06.390Z,3.65
2018-11-21T02:28:06.376Z,3.66
2018-11-21T02:29:06.364Z,3.68
2018-11-21T02:30:06.350Z,3.68
2018-11-21T02:31:06.333Z,3.66
2018-11-21T02:32:06.319Z,3.60
2018-11-21T02:33:06.311Z,3.60
2018-11-21T02:34:06.290Z,3.70
2018-11-21T02:35:06.274Z,3.70
2018-11-21T02:36:06.262Z,3.77
2018-11-21T02:37:06.247Z,3.73
2018-11-21T02:38:06.233Z,3.73
2018-11-21T02:39:06.220Z,3.70
2018-11-21T02:40:06.208Z,3.66
2018-11-21T02:41:06.191Z,3.74
2018-11-21T02:42:06.176Z,3.65
2018-11-21T02:43:06.162Z,3.77
2018-11-21T02:44:06.148Z,3.63
2018-11-21T02:45:06.135Z,3.63
2018-11-21T02:46:06.127Z,3.74
2018-11-21T02:47:06.105Z,3.73
2018-11-21T02:48:06.091Z,3.78
2018-11-21T02:49:06.077Z,3.80
2018-11-21T02:50:06.313Z,3.84
2018-11-21T02:51:06.049Z,3.76
2018-11-21T02:52:06.035Z,3.78
2018-11-21T02:53:06.021Z,3.81
2018-11-21T02:54:06.008Z,3.87
2018-11-21T02:55:05.993Z,3.81
2018-11-21T02:56:05.979Z,3.80
2018-11-21T02:57:05.965Z,3.83
2018-11-21T02:58:05.954Z,3.81
2018-11-21T02:59:05.936Z,3.80
2018-11-21T03:00:05.923Z,3.80
2018-11-21T03:01:05.909Z,3.80
2018-11-21T03:02:05.893Z,3.81
2018-11-21T03:03:05.881Z,3.80
2018-11-21T03:04:05.868Z,3.84
2018-11-21T03:05:05.854Z,3.87
2018-11-21T03:06:05.839Z,3.74
2018-11-21T03:07:05.825Z,3.87
2018-11-21T03:08:05.811Z,3.81
2018-11-21T03:09:05.796Z,3.81
2018-11-21T03:10:05.783Z,3.87
2018-11-21T03:11:05.820Z,3.88
2018-11-21T03:12:05.756Z,3.84
2018-11-21T03:13:05.743Z,3.83
2018-11-21T03:14:05.727Z,3.87
2018-11-21T03:15:05.714Z,3.78
2018-11-21T03:16:05.704Z,3.80
2018-11-21T03:17:05.687Z,3.81
2018-11-21T03:18:05.676Z,3.83
2018-11-21T03:19:05.662Z,3.78
2018-11-21T03:20:05.644Z,3.80
2018-11-21T03:21:05.633Z,3.81
2018-11-21T03:22:05.616Z,3.81
2018-11-21T03:23:05.602Z,3.81
2018-11-21T03:24:05.588Z,3.87
2018-11-21T03:25:05.573Z,3.84
2018-11-21T03:26:05.560Z,3.78
2018-11-21T03:27:05.551Z,3.88
2018-11-21T03:28:05.533Z,3.86
2018-11-21T03:29:05.518Z,3.81
2018-11-21T03:30:05.519Z,3.84
2018-11-21T03:31:05.493Z,3.83
2018-11-21T03:32:05.478Z,3.81
2018-11-21T03:33:05.462Z,3.86
2018-11-21T03:34:05.447Z,3.86
2018-11-21T03:35:05.434Z,3.84
2018-11-21T03:36:05.420Z,3.88
2018-11-21T03:37:05.413Z,3.84
2018-11-21T03:38:05.400Z,3.81
2018-11-21T03:39:05.377Z,3.81
2018-11-21T03:40:05.364Z,3.84
2018-11-21T03:41:05.354Z,3.83
2018-11-21T03:42:05.335Z,3.87
2018-11-21T03:43:05.325Z,3.84
2018-11-21T03:44:05.307Z,3.86
2018-11-21T03:45:05.303Z,3.81
2018-11-21T03:46:05.282Z,3.87
2018-11-21T03:47:05.266Z,3.84
2018-11-21T03:48:05.253Z,3.84
2018-11-21T03:49:05.237Z,3.88
2018-11-21T03:50:05.224Z,3.84
2018-11-21T03:51:05.224Z,3.78
2018-11-21T03:52:05.208Z,3.81
2018-11-21T03:53:05.190Z,3.83
2018-11-21T03:54:05.167Z,3.73
2018-11-21T03:55:05.158Z,3.80
2018-11-21T03:56:05.141Z,3.73
2018-11-21T03:57:05.126Z,3.74
2018-11-21T03:58:05.112Z,3.70
2018-11-21T03:59:05.098Z,3.76
2018-11-21T04:00:05.088Z,3.78
2018-11-21T04:01:05.080Z,3.81
2018-11-21T04:02:05.057Z,3.87
2018-11-21T04:03:05.044Z,3.81
2018-11-21T04:04:05.034Z,3.81
2018-11-21T04:05:05.018Z,3.78
2018-11-21T04:06:04.999Z,3.81
2018-11-21T04:07:04.999Z,3.78
2018-11-21T04:08:04.974Z,3.84
2018-11-21T04:09:04.959Z,3.81
2018-11-21T04:10:04.948Z,3.83
2018-11-21T04:11:04.932Z,3.84
2018-11-21T04:12:04.916Z,3.87
2018-11-21T04:13:04.903Z,3.84
2018-11-21T04:14:04.888Z,3.81
2018-11-21T04:15:04.874Z,3.84
2018-11-21T04:16:04.862Z,3.87
2018-11-21T04:17:04.855Z,3.88
2018-11-21T04:18:04.831Z,3.92
2018-11-21T04:19:04.823Z,3.92
2018-11-21T04:20:04.806Z,3.96
2018-11-21T04:21:04.795Z,3.86
2018-11-21T04:22:04.783Z,3.84
2018-11-21T04:23:04.764Z,3.84
2018-11-21T04:24:04.753Z,3.94
2018-11-21T04:25:04.738Z,3.95
2018-11-21T04:26:04.727Z,3.91
2018-11-21T04:27:04.711Z,3.94
2018-11-21T04:28:04.697Z,3.96
2018-11-21T04:29:04.685Z,4.01
2018-11-21T04:30:04.674Z,4.01
2018-11-21T04:31:04.657Z,4.02
2018-11-21T04:32:04.643Z,3.98
2018-11-21T04:33:04.631Z,3.98
2018-11-21T04:34:04.625Z,3.92
2018-11-21T04:35:04.610Z,4.05
2018-11-21T04:36:04.590Z,4.08
2018-11-21T04:37:04.578Z,4.05
2018-11-21T04:38:04.571Z,3.95
2018-11-21T04:39:04.552Z,3.98
2018-11-21T04:40:04.542Z,4.08
2018-11-21T04:41:04.529Z,4.02
2018-11-21T04:42:04.511Z,3.96
2018-11-21T04:43:04.505Z,3.96
2018-11-21T04:44:04.486Z,4.05
2018-11-21T04:45:04.477Z,3.98
2018-11-21T04:46:04.459Z,3.95
2018-11-21T04:47:04.446Z,3.98
2018-11-21T04:48:04.433Z,4.02
2018-11-21T04:49:04.421Z,4.02
2018-11-21T04:50:04.407Z,4.01
2018-11-21T04:51:04.394Z,4.04
2018-11-21T04:52:04.630Z,3.98
2018-11-21T04:53:04.368Z,4.01
2018-11-21T04:54:04.356Z,4.05
2018-11-21T04:55:04.342Z,4.04
2018-11-21T04:56:04.329Z,4.06
2018-11-21T04:57:04.316Z,4.06
2018-11-21T04:58:04.303Z,4.10
2018-11-21T04:59:04.290Z,3.98
2018-11-21T05:00:04.277Z,4.01
2018-11-21T05:01:04.265Z,3.91
2018-11-21T05:02:04.251Z,3.83
2018-11-21T05:03:04.239Z,3.87
2018-11-21T05:04:04.231Z,3.88
2018-11-21T05:05:04.214Z,3.84
2018-11-21T05:06:04.200Z,3.81
2018-11-21T05:07:04.198Z,3.83
2018-11-21T05:08:04.178Z,3.73
2018-11-21T05:09:04.168Z,3.68
2018-11-21T05:10:04.151Z,3.74
2018-11-21T05:11:04.140Z,3.68
2018-11-21T05:12:04.125Z,3.78
2018-11-21T05:13:04.111Z,3.81
2018-11-21T05:14:04.100Z,3.80
2018-11-21T05:15:04.088Z,3.78
2018-11-21T05:16:04.075Z,3.81
2018-11-21T05:17:04.062Z,3.78
2018-11-21T05:18:04.046Z,3.81
2018-11-21T05:19:04.036Z,3.77
2018-11-21T05:20:04.020Z,3.77
2018-11-21T05:21:04.009Z,3.83
2018-11-21T05:22:03.993Z,3.81
2018-11-21T05:23:03.981Z,3.77
2018-11-21T05:24:03.968Z,3.81
2018-11-21T05:25:03.959Z,3.81
2018-11-21T05:26:03.943Z,3.80
2018-11-21T05:27:03.929Z,3.84
2018-11-21T05:28:03.917Z,3.84
2018-11-21T05:29:03.903Z,3.83
2018-11-21T05:30:03.900Z,3.86
2018-11-21T05:31:03.877Z,3.84
2018-11-21T05:32:03.864Z,3.86
2018-11-21T05:33:03.853Z,3.81
2018-11-21T05:34:03.837Z,3.84
2018-11-21T05:35:03.823Z,3.78
2018-11-21T05:36:03.811Z,3.87
2018-11-21T05:37:03.801Z,3.87
2018-11-21T05:38:03.784Z,3.91
2018-11-21T05:39:03.771Z,3.80
2018-11-21T05:40:03.760Z,3.86
2018-11-21T05:41:03.745Z,3.87
2018-11-21T05:42:03.734Z,4.01
2018-11-21T05:43:03.718Z,3.94
2018-11-21T05:44:03.705Z,3.83
2018-11-21T05:45:03.692Z,3.87
2018-11-21T05:46:03.678Z,3.92
2018-11-21T05:47:03.665Z,3.96
2018-11-21T05:48:03.656Z,3.96
2018-11-21T05:49:03.644Z,3.87
2018-11-21T05:50:03.625Z,3.84
2018-11-21T05:51:03.612Z,3.95
2018-11-21T05:52:03.599Z,3.84
2018-11-21T05:53:03.585Z,3.84
2018-11-21T05:54:03.573Z,3.99
2018-11-21T05:55:03.559Z,3.87
2018-11-21T05:56:03.547Z,3.88
2018-11-21T05:57:03.537Z,3.94
2018-11-21T05:58:03.520Z,3.96
2018-11-21T05:59:03.506Z,3.96
2018-11-21T06:00:03.494Z,3.88
2018-11-21T06:01:03.485Z,3.95
2018-11-21T06:02:03.468Z,3.84
2018-11-21T06:03:03.454Z,3.94
2018-11-21T06:04:03.441Z,3.84
2018-11-21T06:05:03.428Z,3.81
2018-11-21T06:06:09.758Z,3.83
2018-11-21T06:07:03.401Z,3.80
2018-11-21T06:08:03.396Z,3.83
2018-11-21T06:09:03.375Z,3.68
2018-11-21T06:10:03.362Z,3.77
2018-11-21T06:11:03.349Z,3.76
2018-11-21T06:12:04.415Z,3.69
2018-11-21T06:13:03.323Z,3.74
2018-11-21T06:14:03.312Z,3.76
2018-11-21T06:15:03.301Z,3.70
2018-11-21T06:16:03.285Z,3.73
2018-11-21T06:17:03.271Z,3.65
2018-11-21T06:18:03.257Z,3.68
2018-11-21T06:19:03.244Z,3.68
2018-11-21T06:20:03.233Z,3.65
2018-11-21T06:21:03.224Z,3.73
2018-11-21T06:22:03.205Z,3.74
2018-11-21T06:23:03.192Z,3.74
2018-11-21T06:24:03.179Z,3.65
2018-11-21T06:25:03.165Z,3.74
2018-11-21T06:26:03.152Z,3.74
2018-11-21T06:27:03.140Z,3.74
2018-11-21T06:28:03.126Z,3.68
2018-11-21T06:29:03.115Z,3.62
2018-11-21T06:30:03.099Z,3.77
2018-11-21T06:31:03.087Z,3.73
2018-11-21T06:32:03.076Z,3.73
2018-11-21T06:33:03.063Z,3.77
2018-11-21T06:34:03.051Z,3.78
2018-11-21T06:35:03.034Z,3.87
2018-11-21T06:36:03.022Z,3.81
2018-11-21T06:37:03.015Z,3.83
2018-11-21T06:38:02.995Z,3.81
2018-11-21T06:39:02.983Z,3.81
2018-11-21T06:40:02.973Z,3.80
2018-11-21T06:41:02.957Z,3.80
2018-11-21T06:42:02.945Z,3.80
2018-11-21T06:43:02.930Z,3.74
2018-11-21T06:44:02.917Z,3.83
2018-11-21T06:45:03.522Z,3.80
2018-11-21T06:46:02.892Z,3.80
2018-11-21T06:47:02.882Z,3.87
2018-11-21T06:48:02.866Z,3.77
2018-11-21T06:49:02.852Z,3.83
2018-11-21T06:50:02.840Z,3.78
2018-11-21T06:51:02.826Z,3.77
2018-11-21T06:52:02.813Z,3.76
2018-11-21T06:53:02.801Z,3.77
2018-11-21T06:54:02.786Z,3.86
2018-11-21T06:55:02.773Z,3.76
2018-11-21T06:56:02.771Z,3.81
2018-11-21T06:57:02.747Z,3.86
2018-11-21T06:58:02.734Z,3.77
2018-11-21T06:59:02.720Z,3.76
2018-11-21T07:00:02.711Z,3.78
2018-11-21T07:01:02.695Z,3.80
2018-11-21T07:02:02.682Z,3.73
2018-11-21T07:03:02.669Z,3.74
2018-11-21T07:04:02.655Z,3.73
2018-11-21T07:05:02.641Z,3.73
2018-11-21T07:06:02.627Z,3.73
2018-11-21T07:07:02.617Z,3.70
2018-11-21T07:08:02.605Z,3.76
2018-11-21T07:09:02.594Z,3.68
2018-11-21T07:10:02.575Z,3.70
2018-11-21T07:11:02.562Z,3.70
2018-11-21T07:12:02.558Z,3.83
2018-11-21T07:13:02.539Z,3.73
2018-11-21T07:14:07.111Z,3.63
2018-11-21T07:15:02.513Z,3.62
2018-11-21T07:16:02.496Z,3.76
2018-11-21T07:17:02.483Z,3.70
2018-11-21T07:18:02.484Z,3.80
2018-11-21T07:19:02.507Z,3.76
2018-11-21T07:20:02.444Z,3.74
2018-11-21T07:21:02.441Z,3.83
2018-11-21T07:22:02.418Z,3.81
2018-11-21T07:23:02.405Z,3.80
2018-11-21T07:24:02.440Z,3.88
2018-11-21T07:25:02.378Z,3.83
2018-11-21T07:26:02.398Z,3.80
2018-11-21T07:27:02.349Z,3.78
2018-11-21T07:28:02.340Z,3.80
2018-11-21T07:29:02.342Z,3.84
2018-11-21T07:30:02.319Z,3.86
2018-11-21T07:31:02.303Z,3.80
2018-11-21T07:32:02.284Z,3.78
2018-11-21T07:33:02.270Z,3.77
2018-11-21T07:34:02.278Z,3.88
2018-11-21T07:35:02.243Z,3.84
2018-11-21T07:36:02.232Z,3.87
2018-11-21T07:37:02.221Z,3.95
2018-11-21T07:38:02.203Z,3.86
2018-11-21T07:39:02.248Z,3.80
2018-11-21T07:40:02.178Z,3.83
2018-11-21T07:41:02.170Z,3.84
2018-11-21T07:42:02.154Z,3.81
2018-11-21T07:43:02.137Z,3.91
2018-11-21T07:44:02.125Z,3.88
2018-11-21T07:45:02.111Z,3.87
2018-11-21T07:46:02.098Z,3.96
2018-11-21T07:47:02.086Z,3.94
2018-11-21T07:48:02.079Z,3.98
2018-11-21T07:49:02.059Z,3.86
2018-11-21T07:50:02.049Z,3.91
2018-11-21T07:51:02.448Z,4.02
2018-11-21T07:52:02.020Z,4.05
2018-11-21T07:53:02.008Z,4.04
2018-11-21T07:54:01.994Z,3.99
2018-11-21T07:55:01.979Z,4.10
2018-11-21T07:56:01.966Z,4.12
2018-11-21T07:57:01.956Z,4.12
2018-11-21T07:58:01.941Z,4.22
2018-11-21T07:59:01.929Z,4.19
2018-11-21T08:00:01.921Z,4.17
2018-11-21T08:01:01.905Z,4.17
2018-11-21T08:02:01.895Z,4.32
2018-11-21T08:03:01.907Z,4.34
2018-11-21T08:04:01.877Z,4.37
2018-11-21T08:05:02.053Z,4.37
2018-11-21T08:06:01.837Z,4.35
2018-11-21T08:07:01.838Z,4.37
2018-11-21T08:08:01.815Z,4.40
2018-11-21T08:09:01.801Z,4.40
2018-11-21T08:10:01.791Z,4.42
2018-11-21T08:11:01.774Z,4.41
2018-11-21T08:12:01.918Z,4.48
2018-11-21T08:13:01.752Z,4.42
2018-11-21T08:14:01.739Z,4.44
2018-11-21T08:15:01.723Z,4.44
2018-11-21T08:16:01.712Z,4.56
2018-11-21T08:17:01.697Z,4.60
2018-11-21T08:18:01.699Z,4.58
2018-11-21T08:19:01.675Z,4.42
2018-11-21T08:20:01.660Z,4.55
2018-11-21T08:21:01.660Z,4.59
2018-11-21T08:22:01.641Z,4.60
2018-11-21T08:23:02.033Z,4.58
2018-11-21T08:24:01.609Z,4.66
2018-11-21T08:25:01.597Z,4.70
2018-11-21T08:26:01.583Z,4.68
2018-11-21T08:27:01.574Z,4.66
2018-11-21T08:28:01.562Z,4.68
2018-11-21T08:29:01.547Z,4.74
2018-11-21T08:30:01.535Z,4.71
2018-11-21T08:31:01.522Z,4.73
2018-11-21T08:32:01.518Z,4.84
2018-11-21T08:33:01.497Z,4.75
2018-11-21T08:34:01.484Z,4.90
2018-11-21T08:35:01.480Z,4.87
2018-11-21T08:36:01.467Z,4.93
2018-11-21T08:37:01.450Z,4.92
2018-11-21T08:38:01.435Z,4.96
2018-11-21T08:39:01.425Z,4.97
2018-11-21T08:40:01.413Z,5.00
2018-11-21T08:41:01.399Z,4.97
2018-11-21T08:42:01.390Z,4.93
2018-11-21T08:43:01.378Z,4.92
2018-11-21T08:44:01.366Z,4.89
2018-11-21T08:45:01.352Z,4.80
2018-11-21T08:46:01.343Z,4.89
2018-11-21T08:47:01.333Z,4.78
2018-11-21T08:48:01.315Z,4.90
2018-11-21T08:49:01.305Z,4.87
2018-11-21T08:50:01.291Z,4.92
2018-11-21T08:51:01.281Z,4.96
2018-11-21T08:52:01.266Z,4.89
2018-11-21T08:53:01.255Z,4.84
2018-11-21T08:54:01.241Z,4.92
2018-11-21T08:55:01.238Z,4.92
2018-11-21T08:56:01.419Z,4.94
2018-11-21T08:57:01.207Z,4.92
2018-11-21T08:58:01.194Z,4.89
2018-11-21T08:59:01.180Z,4.90
2018-11-21T09:00:01.168Z,4.96
2018-11-21T09:01:01.155Z,4.93
2018-11-21T09:02:01.147Z,4.94
2018-11-21T09:03:01.131Z,4.93
2018-11-21T09:04:01.118Z,4.99
2018-11-21T09:05:01.111Z,5.04
2018-11-21T09:06:04.342Z,5.07
2018-11-21T09:07:01.089Z,5.02
2018-11-21T09:08:01.070Z,5.08
2018-11-21T09:09:01.057Z,5.11
2018-11-21T09:10:01.045Z,5.14
2018-11-21T09:11:02.589Z,5.11
2018-11-21T09:12:01.022Z,5.07
2018-11-21T09:13:01.008Z,5.10
2018-11-21T09:14:00.995Z,5.11
2018-11-21T09:15:00.990Z,5.17
2018-11-21T09:16:01.014Z,5.26
2018-11-21T09:17:00.960Z,5.15
2018-11-21T09:18:00.948Z,5.18
2018-11-21T09:19:00.935Z,5.26
2018-11-21T09:20:00.924Z,5.29
2018-11-21T09:21:00.915Z,5.25
2018-11-21T09:22:00.899Z,5.29
2018-11-21T09:23:00.889Z,5.35
2018-11-21T09:24:00.875Z,5.35
2018-11-21T09:25:00.864Z,5.39
2018-11-21T09:26:00.855Z,5.41
2018-11-21T09:27:00.840Z,5.50
2018-11-21T09:28:00.828Z,5.56
2018-11-21T09:29:00.816Z,5.65
2018-11-21T09:30:00.805Z,5.76
2018-11-21T09:31:00.835Z,5.90
2018-11-21T09:32:00.784Z,5.98
2018-11-21T09:33:00.778Z,5.97
2018-11-21T09:34:00.761Z,6.01
2018-11-21T09:35:00.748Z,5.90
2018-11-21T09:36:00.739Z,5.87
2018-11-21T09:37:00.726Z,5.84
2018-11-21T09:38:00.723Z,5.91
2018-11-21T09:39:01.154Z,5.99
2018-11-21T09:40:00.693Z,6.11
2018-11-21T09:41:00.682Z,6.16
2018-11-21T09:42:00.671Z,6.11
2018-11-21T09:43:00.660Z,6.19
2018-11-21T09:44:00.653Z,6.33
2018-11-21T09:45:00.642Z,6.44
2018-11-21T09:46:00.627Z,6.49
2018-11-21T09:47:00.623Z,6.63
2018-11-21T09:48:00.809Z,6.54
2018-11-21T09:49:00.616Z,6.46
2018-11-21T09:50:00.585Z,6.63
2018-11-21T09:51:00.576Z,6.57
2018-11-21T09:52:00.564Z,6.51
2018-11-21T09:53:00.554Z,6.38
2018-11-21T09:54:01.785Z,6.39
2018-11-21T09:55:00.533Z,6.39
2018-11-21T09:56:01.272Z,6.36
2018-11-21T09:57:00.514Z,6.45
2018-11-21T09:58:00.501Z,6.54
2018-11-21T09:59:00.489Z,6.70
2018-11-21T10:00:00.479Z,6.75
2018-11-21T10:01:00.469Z,6.82
2018-11-21T10:02:00.464Z,6.88
2018-11-21T10:03:00.447Z,6.81
2018-11-21T10:04:01.073Z,6.70
2018-11-21T10:05:00.426Z,6.74
2018-11-21T10:06:00.418Z,6.56
2018-11-21T10:07:00.405Z,6.54
2018-11-21T10:08:00.398Z,6.54
2018-11-21T10:09:00.389Z,6.52
2018-11-21T10:10:00.379Z,6.54
2018-11-21T10:11:00.615Z,6.48
2018-11-21T10:12:00.354Z,6.42
2018-11-21T10:13:00.349Z,6.38
2018-11-21T10:14:00.343Z,6.12
2018-11-21T10:15:00.324Z,6.12
2018-11-21T10:16:01.087Z,6.11
2018-11-21T10:17:00.302Z,6.24
2018-11-21T10:18:00.294Z,6.54
2018-11-21T10:19:00.279Z,6.82
2018-11-21T10:20:00.272Z,6.96
2018-11-21T10:21:00.464Z,7.21
2018-11-21T10:22:00.252Z,7.47
2018-11-21T10:23:00.244Z,7.63
2018-11-21T10:24:00.243Z,7.63
2018-11-21T10:25:00.227Z,7.73
2018-11-21T10:26:00.219Z,7.93
2018-11-21T10:27:00.310Z,7.94
2018-11-21T10:28:00.205Z,8.16
2018-11-21T10:29:00.194Z,8.18
2018-11-21T10:30:01.840Z,8.34
2018-11-21T10:31:00.277Z,8.42
2018-11-21T10:33:00.161Z,8.44
2018-11-21T10:34:00.160Z,8.38
2018-11-21T10:35:00.146Z,8.28
2018-11-21T10:36:00.196Z,8.13
2018-11-21T10:37:00.229Z,8.23
2018-11-21T10:38:00.171Z,8.28
2018-11-21T10:39:00.211Z,8.30
2018-11-21T10:40:00.107Z,8.33
2018-11-21T10:41:00.106Z,8.38
2018-11-21T10:42:00.089Z,8.20
2018-11-21T10:43:00.088Z,7.98
2018-11-21T10:44:00.076Z,7.69
2018-11-21T10:45:00.069Z,7.48
2018-11-21T10:46:00.057Z,7.21
2018-11-21T10:47:00.047Z,7.20
2018-11-21T10:48:00.089Z,7.10
2018-11-21T10:49:00.030Z,6.96
2018-11-21T10:50:00.021Z,6.93
2018-11-21T10:51:00.011Z,6.84
2018-11-21T10:52:59.992Z,6.72
2018-11-21T10:54:00.037Z,6.62
2018-11-21T10:54:59.973Z,6.54
2018-11-21T10:55:59.972Z,6.48
2018-11-21T10:56:59.953Z,6.45
2018-11-21T10:57:59.956Z,6.46
2018-11-21T10:58:59.934Z,6.44
2018-11-21T10:59:59.928Z,6.45
2018-11-21T11:00:59.915Z,6.28
2018-11-21T11:01:59.904Z,6.24
2018-11-21T11:02:59.892Z,6.14
2018-11-21T11:03:59.884Z,6.19
2018-11-21T11:04:59.880Z,6.17
2018-11-21T11:05:59.865Z,6.12
2018-11-21T11:06:59.860Z,6.14
2018-11-21T11:07:59.842Z,5.99
2018-11-21T11:08:59.891Z,5.94
2018-11-21T11:10:00.210Z,5.84
2018-11-21T11:10:59.811Z,5.79
2018-11-21T11:11:59.800Z,5.76
2018-11-21T11:12:59.791Z,5.82
2018-11-21T11:13:59.778Z,5.87
2018-11-21T11:14:59.772Z,5.93
2018-11-21T11:15:59.758Z,5.91
2018-11-21T11:16:59.755Z,6.09
2018-11-21T11:17:59.742Z,6.11
2018-11-21T11:18:59.726Z,6.12
2018-11-21T11:19:59.717Z,6.19
2018-11-21T11:20:59.711Z,6.14
2018-11-21T11:21:59.695Z,6.12
2018-11-21T11:22:59.685Z,6.12
2018-11-21T11:23:59.674Z,6.16
2018-11-21T11:24:59.665Z,6.11
2018-11-21T11:25:59.653Z,6.01
2018-11-21T11:26:59.655Z,6.11
2018-11-21T11:27:59.631Z,6.01
2018-11-21T11:28:59.622Z,6.01
2018-11-21T11:29:59.608Z,5.99
2018-11-21T11:30:59.598Z,6.01
2018-11-21T11:31:59.589Z,5.94
2018-11-21T11:32:59.580Z,5.98
2018-11-21T11:33:59.568Z,5.97
2018-11-21T11:34:59.561Z,5.98
2018-11-21T11:35:59.545Z,5.93
2018-11-21T11:36:59.534Z,5.87
2018-11-21T11:37:59.528Z,6.02
2018-11-21T11:38:59.517Z,5.98
2018-11-21T11:39:59.501Z,5.98
2018-11-21T11:40:59.491Z,6.11
2018-11-21T11:41:59.479Z,6.12
2018-11-21T11:42:59.468Z,6.05
2018-11-21T11:43:59.461Z,6.12
2018-11-21T11:44:59.451Z,6.01
2018-11-21T11:45:59.437Z,6.07
2018-11-21T11:46:59.427Z,6.12
2018-11-21T11:47:59.414Z,6.17
2018-11-21T11:48:59.407Z,6.14
2018-11-21T11:49:59.395Z,6.28
2018-11-21T11:50:59.586Z,6.42
2018-11-21T11:51:59.372Z,6.45
2018-11-21T11:52:59.361Z,6.51
2018-11-21T11:53:59.351Z,6.70
2018-11-21T11:54:59.339Z,6.69
2018-11-21T11:55:59.331Z,6.89
2018-11-21T11:56:59.319Z,6.96
2018-11-21T11:57:59.323Z,6.99
2018-11-21T11:58:59.300Z,7.24
2018-11-21T11:59:59.287Z,7.29
2018-11-21T12:00:59.277Z,7.54
2018-11-21T12:01:59.267Z,7.63
2018-11-21T12:02:59.257Z,7.94
2018-11-21T12:03:59.253Z,8.00
2018-11-21T12:04:59.238Z,8.03
2018-11-21T12:05:59.235Z,8.00
2018-11-21T12:06:59.224Z,7.93
2018-11-21T12:07:59.209Z,7.69
2018-11-21T12:08:59.204Z,7.53
2018-11-21T12:09:59.188Z,7.38
2018-11-21T12:10:59.194Z,7.32
2018-11-21T12:11:59.209Z,7.13
2018-11-21T12:12:59.160Z,7.20
2018-11-21T12:13:59.156Z,7.13
2018-11-21T12:14:59.143Z,7.00
2018-11-21T12:15:59.130Z,6.99
2018-11-21T12:16:59.120Z,6.85
2018-11-21T12:17:59.110Z,6.69
2018-11-21T12:18:59.100Z,6.64
2018-11-21T12:19:59.093Z,6.67
2018-11-21T12:20:59.282Z,6.77
2018-11-21T12:21:59.068Z,6.74
2018-11-21T12:22:59.058Z,6.82
2018-11-21T12:23:59.050Z,6.82
2018-11-21T12:24:59.039Z,6.77
2018-11-21T12:25:59.077Z,6.70
2018-11-21T12:26:59.016Z,6.79
2018-11-21T12:27:59.008Z,6.84
2018-11-21T12:28:58.995Z,6.77
2018-11-21T12:29:58.984Z,6.78
2018-11-21T12:30:58.974Z,6.79
2018-11-21T12:31:58.964Z,6.78
2018-11-21T12:32:58.954Z,6.84
2018-11-21T12:33:58.942Z,6.64
2018-11-21T12:34:58.930Z,6.70
2018-11-21T12:35:58.934Z,6.59
2018-11-21T12:36:58.911Z,6.60
2018-11-21T12:37:58.899Z,6.63
2018-11-21T12:38:58.888Z,6.52
2018-11-21T12:39:58.882Z,6.30
2018-11-21T12:40:58.876Z,6.28
2018-11-21T12:41:58.858Z,6.17
2018-11-21T12:42:58.845Z,6.26
2018-11-21T12:43:58.835Z,6.09
2018-11-21T12:45:58.812Z,6.16
2018-11-21T12:46:58.801Z,6.11
2018-11-21T12:47:58.805Z,6.08
2018-11-21T12:48:58.785Z,6.14
2018-11-21T12:49:58.773Z,6.17
2018-11-21T12:50:58.757Z,6.12
2018-11-21T12:51:58.746Z,6.16
2018-11-21T12:52:58.735Z,6.12
2018-11-21T12:53:58.726Z,6.22
2018-11-21T12:54:58.818Z,6.16
2018-11-21T12:55:58.701Z,6.26
2018-11-21T12:56:58.691Z,6.28
2018-11-21T12:57:58.679Z,6.42
2018-11-21T12:58:58.670Z,6.45
2018-11-21T12:59:58.661Z,6.56
2018-11-21T13:00:58.692Z,6.56
2018-11-21T13:01:58.644Z,6.69
2018-11-21T13:02:58.626Z,6.64
2018-11-21T13:03:58.816Z,6.72
2018-11-21T13:04:58.603Z,6.66
2018-11-21T13:05:58.593Z,6.74
2018-11-21T13:06:58.580Z,6.74
2018-11-21T13:07:58.570Z,6.67
2018-11-21T13:08:58.562Z,6.69
2018-11-21T13:09:58.547Z,6.54
2018-11-21T13:10:58.540Z,6.56
2018-11-21T13:11:58.526Z,6.54
2018-11-21T13:12:58.518Z,6.49
2018-11-21T13:13:58.508Z,6.56
2018-11-21T13:14:58.492Z,6.56
2018-11-21T13:15:58.483Z,6.48
2018-11-21T13:16:58.486Z,6.45
2018-11-21T13:17:58.474Z,6.44
2018-11-21T13:18:58.449Z,6.38
2018-11-21T13:19:58.437Z,6.28
2018-11-21T13:20:58.427Z,6.22